Storm Lake, IA

8:03 PM CDT on March 27, 2017 (GMT -0500)
Storm Lake Municipal

Weather History for KSLB - February, 2013

Change the Weather History Date:

Thursday, February 28, 2013

  Actual Average Record
Temperature  
Mean Temperature 24 °F -  
Max Temperature 28 °F 31 °F 50 °F (2006)
Min Temperature 21 °F 18 °F -4 °F (2001)
Degree Days  
Heating Degree Days 40    
Moisture  
Dew Point 22 °F    
Average Humidity 88    
Maximum Humidity 100    
Minimum Humidity 74    
Precipitation  
Precipitation 0.00 in - - ()
Sea Level Pressure  
Sea Level Pressure 30.12 in    
Wind  
Wind Speed 15 mph (NNW)    
Max Wind Speed 22 mph    
Max Gust Speed 24 mph    
Visibility 8 miles    
Events Rain , Snow    
Averages and records for this station are not official NWS values.
T = Trace of Precipitation, MM = Missing Value Source: NWS Daily Summary

Daily Weather History Graph

Daily Weather History Graph

Search for Another Location

Airport or City:

Trip Planner

Search our weather history database for the weather conditions in past years. The results will help you decide how hot, cold, wet, or windy it might be!

Date:

Astronomy

Feb. 28, 2013 Rise Set
Actual Time 6:57 AM CST 6:09 PM CST
Civil Twilight 6:29 AM CST 6:38 PM CST
Nautical Twilight 5:56 AM CST 7:10 PM CST
Astronomical Twilight 5:24 AM CST 7:43 PM CST
Moon 9:43 PM CST 8:02 AM CST
Length of Visible Light 12h 08m
Length of Day
11h 12m
Waning Gibbous, 90% of the Moon is Illuminated
Feb 28
Waning Gibbous
Mar 4
Last Quarter
Mar 11
New
Mar 19
First Quarter
Mar 27
Full

Hourly Weather History & Observations

Time (CST) Temp. Windchill Dew Point Humidity Pressure Visibility Wind Dir Wind Speed Gust Speed Precip Events Conditions
12:15 AM 23.0 °F 8.3 °F 21.2 °F 93% 30.03 in 10.0 mi NNW 19.6 mph - N/A   Overcast
12:55 AM 24.8 °F 12.9 °F 21.2 °F 86% 30.04 in 8.0 mi NNW 13.8 mph 23.0 mph N/A   Overcast
1:15 AM 23.0 °F 7.6 °F 21.2 °F 93% 30.04 in 10.0 mi North 21.9 mph - N/A   Overcast
1:35 AM 23.0 °F 9.2 °F 21.2 °F 93% 30.04 in 10.0 mi North 17.3 mph - N/A   Overcast
1:55 AM 23.0 °F 8.7 °F 21.2 °F 93% 30.04 in 10.0 mi North 18.4 mph - N/A   Overcast
2:15 AM 23.0 °F 9.6 °F 21.2 °F 93% 30.04 in 9.0 mi North 16.1 mph 24.2 mph N/A   Overcast
2:35 AM 23.0 °F 10.1 °F 21.2 °F 93% 30.04 in 9.0 mi NNW 15.0 mph - N/A   Overcast
2:55 AM 23.0 °F 10.6 °F 21.2 °F 93% 30.05 in 8.0 mi NNW 13.8 mph - N/A   Overcast
3:15 AM 23.0 °F 10.1 °F 21.2 °F 93% 30.05 in 8.0 mi NNW 15.0 mph - N/A   Overcast
3:55 AM 23.0 °F 9.6 °F 21.2 °F 93% 30.06 in 8.0 mi NW 16.1 mph - N/A   Overcast
4:35 AM 23.0 °F 9.2 °F 21.2 °F 93% 30.07 in 7.0 mi NNW 17.3 mph 23.0 mph N/A   Overcast
4:55 AM 23.0 °F 8.7 °F 21.2 °F 93% 30.07 in 7.0 mi NNW 18.4 mph - N/A   Overcast
5:15 AM 23.0 °F 9.6 °F 21.2 °F 93% 30.08 in 7.0 mi NNW 16.1 mph - N/A   Overcast
5:35 AM 21.2 °F 6.8 °F 21.2 °F 100% 30.08 in 6.0 mi NNW 17.3 mph - N/A   Overcast
5:55 AM 21.2 °F 7.3 °F 19.4 °F 93% 30.08 in 7.0 mi NNW 16.1 mph - N/A   Overcast
6:15 AM 21.2 °F 8.9 °F 19.4 °F 93% 30.08 in 7.0 mi NNW 12.7 mph - N/A   Mostly Cloudy
6:35 AM 21.2 °F 8.3 °F 21.2 °F 100% 30.09 in 7.0 mi NW 13.8 mph - N/A   Overcast
6:55 AM 23.0 °F 9.6 °F 21.2 °F 93% 30.09 in 6.0 mi NW 16.1 mph - N/A   Overcast
7:15 AM 23.0 °F 11.1 °F 21.2 °F 93% 30.10 in 6.0 mi NNW 12.7 mph - N/A   Overcast
7:35 AM 23.0 °F 11.1 °F 21.2 °F 93% 30.11 in 6.0 mi NW 12.7 mph - N/A   Overcast
7:55 AM 23.0 °F 11.1 °F 21.2 °F 93% 30.12 in 6.0 mi NW 12.7 mph - N/A   Overcast
8:15 AM 23.0 °F 9.6 °F 21.2 °F 93% 30.12 in 6.0 mi NW 16.1 mph - N/A   Overcast
8:35 AM 23.0 °F 11.1 °F 21.2 °F 93% 30.13 in 5.0 mi NW 12.7 mph 18.4 mph N/A   Overcast
8:55 AM 23.0 °F 10.6 °F 21.2 °F 93% 30.13 in 6.0 mi NW 13.8 mph - N/A   Overcast
9:15 AM 24.8 °F 12.9 °F 21.2 °F 86% 30.13 in 6.0 mi NW 13.8 mph - N/A   Overcast
9:35 AM 24.8 °F 13.4 °F 21.2 °F 86% 30.13 in 6.0 mi NW 12.7 mph - N/A   Overcast
9:55 AM 24.8 °F 12.9 °F 21.2 °F 86% 30.13 in 7.0 mi NW 13.8 mph - N/A   Overcast
10:15 AM 24.8 °F 13.4 °F 21.2 °F 86% 30.14 in 7.0 mi NW 12.7 mph - N/A   Overcast
10:35 AM 24.8 °F 12.9 °F 21.2 °F 86% 30.14 in 6.0 mi NW 13.8 mph - N/A   Overcast
10:55 AM 24.8 °F 12.9 °F 21.2 °F 86% 30.14 in 6.0 mi NW 13.8 mph - N/A   Overcast
11:15 AM 24.8 °F 12.4 °F 23.0 °F 93% 30.15 in 7.0 mi NW 15.0 mph - N/A   Overcast
11:35 AM 26.6 °F 14.7 °F 23.0 °F 86% 30.15 in 7.0 mi NNW 15.0 mph - N/A   Overcast
11:55 AM 26.6 °F 15.7 °F 23.0 °F 86% 30.15 in 7.0 mi NW 12.7 mph - N/A   Overcast
12:15 PM 26.6 °F 15.7 °F 23.0 °F 86% 30.15 in 7.0 mi NW 12.7 mph - N/A   Overcast
12:35 PM 26.6 °F 15.2 °F 23.0 °F 86% 30.14 in 8.0 mi NNW 13.8 mph - N/A   Overcast
12:55 PM 26.6 °F 16.8 °F 23.0 °F 86% 30.14 in 8.0 mi NW 10.4 mph 17.3 mph N/A   Overcast
1:15 PM 26.6 °F 16.2 °F 23.0 °F 86% 30.14 in 9.0 mi NW 11.5 mph - N/A   Overcast
1:35 PM 28.4 °F 17.5 °F 23.0 °F 80% 30.13 in 9.0 mi NNW 13.8 mph - N/A   Mostly Cloudy
1:55 PM 28.4 °F 18.0 °F 23.0 °F 80% 30.13 in 8.0 mi NNW 12.7 mph - N/A   Mostly Cloudy
2:15 PM 28.4 °F 19.1 °F 23.0 °F 80% 30.13 in 9.0 mi NNW 10.4 mph - N/A   Mostly Cloudy
2:35 PM 28.4 °F 18.0 °F 23.0 °F 80% 30.12 in 10.0 mi NNW 12.7 mph - N/A   Overcast
2:55 PM 28.4 °F 18.0 °F 23.0 °F 80% 30.13 in 10.0 mi NNW 12.7 mph - N/A   Overcast
3:35 PM 28.4 °F 18.0 °F 23.0 °F 80% 30.13 in 10.0 mi North 12.7 mph - N/A   Overcast
3:55 PM 28.4 °F 16.6 °F 21.2 °F 74% 30.13 in 10.0 mi North 16.1 mph - N/A   Overcast
4:15 PM 28.4 °F 17.5 °F 21.2 °F 74% 30.13 in 10.0 mi NNW 13.8 mph - N/A   Overcast
4:35 PM 26.6 °F 16.2 °F 23.0 °F 86% 30.13 in 10.0 mi North 11.5 mph - N/A   Overcast
4:55 PM 26.6 °F 15.7 °F 23.0 °F 86% 30.13 in 10.0 mi North 12.7 mph - N/A   Overcast
5:15 PM 26.6 °F 15.7 °F 23.0 °F 86% 30.14 in 10.0 mi North 12.7 mph - N/A   Overcast
5:35 PM 26.6 °F 15.7 °F 23.0 °F 86% 30.15 in 9.0 mi North 12.7 mph - N/A Rain Light Freezing Rain
5:55 PM 26.6 °F 15.7 °F 23.0 °F 86% 30.15 in 10.0 mi North 12.7 mph - N/A Rain Light Freezing Rain
6:15 PM 26.6 °F 15.7 °F 21.2 °F 80% 30.16 in 10.0 mi North 12.7 mph - N/A   Overcast
6:35 PM 26.6 °F 16.8 °F 21.2 °F 80% 30.16 in 10.0 mi North 10.4 mph - N/A   Overcast
7:15 PM 24.8 °F 14.0 °F 21.2 °F 86% 30.16 in 10.0 mi North 11.5 mph 17.3 mph N/A   Overcast
7:35 PM 24.8 °F 14.6 °F 21.2 °F 86% 30.17 in 10.0 mi North 10.4 mph - N/A   Overcast
7:55 PM 24.8 °F 14.0 °F 23.0 °F 93% 30.17 in 10.0 mi North 11.5 mph - N/A   Overcast
8:15 PM 24.8 °F 16.1 °F 21.2 °F 86% 30.17 in 10.0 mi North 8.1 mph - N/A   Overcast
8:35 PM 24.8 °F 15.3 °F 21.2 °F 86% 30.17 in 10.0 mi NNW 9.2 mph - N/A   Overcast
8:55 PM 24.8 °F 15.3 °F 21.2 °F 86% 30.17 in 10.0 mi North 9.2 mph - N/A   Overcast
9:15 PM 24.8 °F 15.3 °F 21.2 °F 86% 30.17 in 10.0 mi North 9.2 mph - N/A   Overcast
9:35 PM 24.8 °F 15.3 °F 21.2 °F 86% 30.17 in 10.0 mi NNW 9.2 mph - N/A   Overcast
9:55 PM 24.8 °F 14.6 °F 21.2 °F 86% 30.17 in 10.0 mi NW 10.4 mph - N/A   Overcast
10:15 PM 24.8 °F 14.0 °F 21.2 °F 86% 30.17 in 10.0 mi NNW 11.5 mph - N/A   Overcast
10:35 PM 24.8 °F 15.3 °F 21.2 °F 86% 30.17 in 10.0 mi NNW 9.2 mph - N/A   Overcast
10:55 PM 24.8 °F 14.6 °F 21.2 °F 86% 30.16 in 10.0 mi NNW 10.4 mph - N/A   Overcast
11:15 PM 24.8 °F 14.0 °F 21.2 °F 86% 30.16 in 10.0 mi NNW 11.5 mph - N/A   Overcast
11:35 PM 24.8 °F 14.6 °F 21.2 °F 86% 30.16 in 10.0 mi NNW 10.4 mph - N/A   Overcast
11:55 PM 23.0 °F 13.1 °F 21.2 °F 93% 30.16 in 8.0 mi NNW 9.2 mph - N/A Snow Light Snow